createdAt,value
2018-01-11T00:02:18.284Z,18.77
2018-01-11T00:04:50.608Z,19.80
2018-01-11T00:07:23.392Z,19.87
2018-01-11T00:09:55.736Z,19.33
2018-01-11T00:12:28.920Z,20.90
2018-01-11T00:15:01.304Z,20.03
2018-01-11T00:17:33.692Z,18.40
2018-01-11T00:20:06.123Z,20.07
2018-01-11T00:22:38.624Z,20.63
2018-01-11T00:25:11.045Z,22.00
2018-01-11T00:27:43.532Z,20.80
2018-01-11T00:30:15.843Z,22.00
2018-01-11T00:32:48.249Z,20.87
2018-01-11T00:35:20.635Z,21.20
2018-01-11T00:37:53.304Z,21.50
2018-01-11T00:40:25.640Z,19.67
2018-01-11T00:42:58.037Z,20.50
2018-01-11T00:45:30.423Z,21.20
2018-01-11T00:48:02.872Z,21.17
2018-01-11T00:50:35.307Z,20.70
2018-01-11T00:53:07.977Z,20.07
2018-01-11T00:55:40.272Z,17.87
2018-01-11T00:58:12.768Z,18.27
2018-01-11T01:00:45.148Z,13.43
2018-01-11T01:03:18.256Z,13.87
2018-01-11T01:05:50.720Z,12.60
2018-01-11T01:08:23.140Z,13.40
2018-01-11T01:10:55.544Z,11.67
2018-01-11T01:13:28.776Z,17.10
2018-01-11T01:16:01.109Z,13.60
2018-01-11T01:18:33.752Z,18.03
2018-01-11T01:21:06.036Z,19.23
2018-01-11T01:23:38.455Z,18.63
2018-01-11T01:26:10.860Z,20.03
2018-01-11T01:28:44.109Z,16.70
2018-01-11T01:31:17.681Z,20.00
2018-01-11T01:33:50.131Z,21.80
2018-01-11T01:36:23.265Z,23.10
2018-01-11T01:38:55.716Z,22.77
2018-01-11T01:41:28.919Z,21.33
2018-01-11T01:44:01.589Z,14.97
2018-01-11T01:46:33.887Z,13.20
2018-01-11T01:49:06.604Z,14.60
2018-01-11T01:51:38.900Z,17.07
2018-01-11T01:54:11.336Z,24.17
2018-01-11T01:56:44.408Z,17.73
2018-01-11T01:59:17.615Z,17.70
2018-01-11T02:01:50.849Z,15.23
2018-01-11T02:04:23.289Z,14.43
2018-01-11T02:06:55.657Z,15.37
2018-01-11T02:09:28.092Z,15.17
2018-01-11T02:12:00.903Z,15.97
2018-01-11T02:14:33.652Z,14.30
2018-01-11T02:17:07.357Z,14.63
2018-01-11T02:19:39.659Z,13.33
2018-01-11T02:22:12.092Z,13.60
2018-01-11T02:24:44.529Z,14.23
2018-01-11T02:27:17.686Z,14.13
2018-01-11T02:29:50.008Z,12.30
2018-01-11T02:32:22.401Z,15.30
2018-01-11T02:34:54.938Z,15.00
2018-01-11T02:37:27.290Z,14.07
2018-01-11T02:39:59.779Z,14.50
2018-01-11T02:42:32.145Z,14.27
2018-01-11T02:45:04.597Z,14.77
2018-01-11T02:47:37.009Z,15.80
2018-01-11T02:50:09.388Z,18.43
2018-01-11T02:52:41.783Z,16.47
2018-01-11T02:55:14.128Z,14.07
2018-01-11T02:57:47.288Z,15.33
2018-01-11T03:00:26.024Z,15.43
2018-01-11T03:02:58.295Z,13.70
2018-01-11T03:05:30.741Z,13.57
2018-01-11T03:08:03.069Z,11.97
2018-01-11T03:10:35.538Z,10.30
2018-01-11T03:13:07.949Z,11.00
2018-01-11T03:15:40.373Z,11.40
2018-01-11T03:18:12.732Z,11.80
2018-01-11T03:20:45.149Z,10.70
2018-01-11T03:23:17.543Z,11.53
2018-01-11T03:25:49.936Z,10.93
2018-01-11T03:28:23.016Z,13.47
2018-01-11T03:30:55.293Z,13.20
2018-01-11T03:33:27.704Z,11.73
2018-01-11T03:36:00.123Z,11.57
2018-01-11T03:38:33.268Z,10.90
2018-01-11T03:41:05.790Z,12.60
2018-01-11T03:43:38.897Z,12.20
2018-01-11T03:46:11.425Z,17.27
2018-01-11T03:48:43.822Z,17.90
2018-01-11T03:51:16.991Z,15.57
2018-01-11T03:53:49.409Z,15.30
2018-01-11T03:56:21.810Z,16.20
2018-01-11T03:58:54.926Z,15.53
2018-01-11T04:01:27.431Z,13.80
2018-01-11T04:03:59.913Z,15.07
2018-01-11T04:06:32.328Z,14.70
2018-01-11T04:09:04.678Z,13.57
2018-01-11T04:11:37.044Z,14.43
2018-01-11T04:14:09.408Z,12.30
2018-01-11T04:16:41.868Z,13.03
2018-01-11T04:19:14.320Z,13.90
2018-01-11T04:21:46.789Z,17.30
2018-01-11T04:24:19.208Z,20.47
2018-01-11T04:26:51.580Z,20.47
2018-01-11T04:29:23.940Z,21.13
2018-01-11T04:31:56.468Z,17.57
2018-01-11T04:34:28.797Z,15.57
2018-01-11T04:37:01.352Z,15.33
2018-01-11T04:39:33.684Z,15.50
2018-01-11T04:42:07.208Z,15.23
2018-01-11T04:44:39.559Z,13.27
2018-01-11T04:47:12.321Z,14.43
2018-01-11T04:49:45.363Z,12.07
2018-01-11T04:52:17.788Z,15.63
2018-01-11T04:54:51.716Z,14.43
2018-01-11T04:57:24.660Z,15.87
2018-01-11T04:59:57.683Z,16.90
2018-01-11T05:02:30.931Z,19.70
2018-01-11T05:05:03.296Z,17.53
2018-01-11T05:07:35.838Z,17.80
2018-01-11T05:10:08.856Z,16.90
2018-01-11T05:12:41.284Z,17.90
2018-01-11T05:15:14.392Z,16.37
2018-01-11T05:17:47.532Z,11.07
2018-01-11T05:20:20.580Z,8.67
2018-01-11T05:22:53.233Z,7.10
2018-01-11T05:25:25.624Z,4.67
2018-01-11T05:27:58.084Z,6.20
2018-01-11T05:30:30.476Z,4.90
2018-01-11T05:33:02.943Z,4.73
2018-01-11T05:35:35.331Z,4.60
2018-01-11T05:38:07.782Z,3.93
2018-01-11T05:40:40.884Z,7.67
2018-01-11T05:43:13.603Z,8.57
2018-01-11T05:45:45.924Z,15.63
2018-01-11T05:48:18.596Z,22.20
2018-01-11T05:50:51.012Z,17.60
2018-01-11T05:53:23.448Z,26.13
2018-01-11T05:55:55.805Z,18.00
2018-01-11T05:58:28.265Z,15.97
2018-01-11T06:01:00.664Z,18.33
2018-01-11T06:03:33.146Z,15.43
2018-01-11T06:06:05.448Z,13.47
2018-01-11T06:08:38.648Z,15.77
2018-01-11T06:11:11.144Z,22.60
2018-01-11T06:13:43.536Z,17.10
2018-01-11T06:16:15.951Z,15.17
2018-01-11T06:18:49.184Z,15.07
2018-01-11T06:21:22.337Z,16.67
2018-01-11T06:23:54.655Z,14.63
2018-01-11T06:26:27.053Z,12.60
2018-01-11T06:28:59.444Z,11.80
2018-01-11T06:31:31.836Z,10.83
2018-01-11T06:34:05.086Z,9.80
2018-01-11T06:36:37.620Z,9.00
2018-01-11T06:39:10.260Z,12.77
2018-01-11T06:41:42.580Z,13.70
2018-01-11T06:44:15.000Z,12.80
2018-01-11T06:46:47.464Z,10.60
2018-01-11T06:49:19.936Z,13.67
2018-01-11T06:51:53.064Z,16.43
2018-01-11T06:54:25.359Z,12.17
2018-01-11T06:56:57.840Z,14.07
2018-01-11T06:59:30.177Z,13.90
2018-01-11T07:02:02.617Z,11.70
2018-01-11T07:04:35.803Z,10.00
2018-01-11T07:07:08.232Z,9.33
2018-01-11T07:09:40.967Z,9.10
2018-01-11T07:12:13.284Z,8.63
2018-01-11T07:14:46.393Z,10.50
2018-01-11T07:17:19.575Z,11.37
2018-01-11T07:19:52.812Z,11.63
2018-01-11T07:22:25.200Z,11.80
2018-01-11T07:24:57.729Z,11.80
2018-01-11T07:27:30.087Z,11.40
2018-01-11T07:30:03.467Z,11.00
2018-01-11T07:32:35.848Z,10.30
2018-01-11T07:35:08.340Z,12.03
2018-01-11T07:37:40.699Z,10.70
2018-01-11T07:40:13.352Z,9.80
2018-01-11T07:42:45.716Z,10.40
2018-01-11T07:45:18.110Z,11.40
2018-01-11T07:47:50.520Z,9.20
2018-01-11T07:50:23.168Z,9.17
2018-01-11T07:52:56.175Z,7.97
2018-01-11T07:55:29.480Z,9.27
2018-01-11T07:58:01.791Z,9.80
2018-01-11T08:00:34.315Z,9.33
2018-01-11T08:03:06.653Z,9.70
2018-01-11T08:05:39.167Z,9.13
2018-01-11T08:08:11.560Z,10.80
2018-01-11T08:10:44.752Z,11.80
2018-01-11T08:13:17.812Z,11.00
2018-01-11T08:15:50.112Z,10.00
2018-01-11T08:18:22.527Z,7.57
2018-01-11T08:20:55.028Z,20.03
2018-01-11T08:23:27.321Z,24.97
2018-01-11T08:25:59.813Z,22.30
2018-01-11T08:28:32.897Z,25.07
2018-01-11T08:31:05.444Z,25.20
2018-01-11T08:33:38.528Z,20.60
2018-01-11T08:36:10.969Z,19.30
2018-01-11T08:38:43.311Z,19.83
2018-01-11T08:41:15.756Z,16.67
2018-01-11T08:43:48.556Z,14.93
2018-01-11T08:46:20.996Z,15.63
2018-01-11T08:48:54.127Z,15.60
2018-01-11T08:51:26.448Z,15.30
2018-01-11T08:53:58.766Z,16.20
2018-01-11T08:56:32.024Z,16.10
2018-01-11T08:59:05.148Z,15.10
2018-01-11T09:01:37.580Z,13.90
2018-01-11T09:04:10.713Z,12.70
2018-01-11T09:06:43.952Z,13.57
2018-01-11T09:09:16.472Z,18.87
2018-01-11T09:11:48.965Z,16.67
2018-01-11T09:14:21.236Z,14.13
2018-01-11T09:16:54.436Z,13.43
2018-01-11T09:19:27.513Z,11.23
2018-01-11T09:21:59.804Z,11.20
2018-01-11T09:24:32.168Z,11.73
2018-01-11T09:27:04.615Z,9.87
2018-01-11T09:29:37.719Z,10.83
2018-01-11T09:32:10.304Z,9.97
2018-01-11T09:34:42.665Z,8.10
2018-01-11T09:37:15.230Z,8.70
2018-01-11T09:39:48.348Z,8.30
2018-01-11T09:42:20.870Z,5.90
2018-01-11T09:44:53.212Z,6.13
2018-01-11T09:47:26.432Z,5.90
2018-01-11T09:49:59.492Z,5.43
2018-01-11T09:52:31.764Z,5.23
2018-01-11T09:55:04.156Z,5.07
2018-01-11T09:57:36.572Z,5.43
2018-01-11T10:00:08.959Z,5.50
2018-01-11T10:02:41.259Z,5.30
2018-01-11T10:05:13.653Z,6.30
2018-01-11T10:07:46.852Z,6.00
2018-01-11T10:10:19.996Z,6.47
2018-01-11T10:12:53.573Z,6.70
2018-01-11T10:15:26.688Z,7.50
2018-01-11T10:17:59.004Z,7.47
2018-01-11T10:20:31.328Z,6.60
2018-01-11T10:23:04.568Z,5.80
2018-01-11T10:25:37.035Z,6.47
2018-01-11T10:28:09.655Z,5.53
2018-01-11T10:30:42.663Z,6.83
2018-01-11T10:33:15.132Z,4.80
2018-01-11T10:35:47.517Z,5.30
2018-01-11T10:38:20.018Z,5.10
2018-01-11T10:40:52.376Z,5.90
2018-01-11T10:43:24.761Z,5.80
2018-01-11T10:45:57.924Z,5.27
2018-01-11T10:48:31.300Z,5.37
2018-01-11T10:51:04.451Z,6.03
2018-01-11T10:53:37.019Z,9.17
2018-01-11T10:56:09.277Z,13.70
2018-01-11T10:58:41.791Z,14.40
2018-01-11T11:01:20.365Z,14.10
2018-01-11T11:03:52.960Z,14.50
2018-01-11T11:06:26.040Z,15.50
2018-01-11T11:08:58.492Z,14.97
2018-01-11T11:11:30.900Z,13.67
2018-01-11T11:14:03.344Z,13.87
2018-01-11T11:16:35.784Z,13.33
2018-01-11T11:19:09.068Z,15.40
2018-01-11T11:21:41.596Z,16.10
2018-01-11T11:24:14.929Z,17.20
2018-01-11T11:26:47.336Z,15.07
2018-01-11T11:29:19.800Z,15.33
2018-01-11T11:31:52.159Z,15.30
2018-01-11T11:34:24.780Z,16.23
2018-01-11T11:36:57.787Z,16.20
2018-01-11T11:39:30.239Z,15.57
2018-01-11T11:42:03.349Z,15.33
2018-01-11T11:44:35.700Z,15.53
2018-01-11T11:47:15.753Z,15.10
2018-01-11T11:49:48.296Z,15.80
2018-01-11T11:52:21.339Z,15.47
2018-01-11T11:54:53.796Z,15.13
2018-01-11T11:57:26.999Z,16.50
2018-01-11T11:59:59.436Z,14.50
2018-01-11T12:02:32.584Z,15.30
2018-01-11T12:05:05.135Z,13.77
2018-01-11T12:07:37.475Z,14.63
2018-01-11T12:10:09.860Z,14.07
2018-01-11T12:12:42.235Z,13.53
2018-01-11T12:15:15.539Z,14.07
2018-01-11T12:17:47.952Z,12.10
2018-01-11T12:20:20.540Z,12.60
2018-01-11T12:22:52.862Z,12.50
2018-01-11T12:25:26.028Z,12.57
2018-01-11T12:27:58.516Z,13.10
2018-01-11T12:30:30.875Z,12.13
2018-01-11T12:33:04.021Z,13.47
2018-01-11T12:35:37.154Z,13.80
2018-01-11T12:38:10.200Z,12.77
2018-01-11T12:40:43.421Z,13.07
2018-01-11T12:43:17.208Z,13.30
2018-01-11T12:45:49.965Z,13.27
2018-01-11T12:48:22.286Z,13.40
2018-01-11T12:50:54.748Z,13.20
2018-01-11T12:53:27.164Z,13.23
2018-01-11T12:56:00.592Z,13.47
2018-01-11T12:58:32.972Z,13.27
2018-01-11T13:01:05.633Z,12.30
2018-01-11T13:03:38.649Z,13.80
2018-01-11T13:06:12.405Z,12.87
2018-01-11T13:08:44.767Z,13.27
2018-01-11T13:11:17.181Z,11.43
2018-01-11T13:13:49.476Z,13.70
2018-01-11T13:16:22.032Z,11.60
2018-01-11T13:18:54.420Z,9.10
2018-01-11T13:21:27.082Z,8.77
2018-01-11T13:23:59.363Z,10.37
2018-01-11T13:26:32.585Z,6.90
2018-01-11T13:29:05.052Z,6.47
2018-01-11T13:31:37.500Z,7.40
2018-01-11T13:34:10.608Z,7.93
2018-01-11T13:36:43.828Z,6.07
2018-01-11T13:39:16.319Z,6.13
2018-01-11T13:41:49.483Z,5.40
2018-01-11T13:44:22.657Z,5.27
2018-01-11T13:46:55.052Z,5.87
2018-01-11T13:49:27.468Z,5.53
2018-01-11T13:51:53.696Z,5.70
2018-01-11T13:54:19.884Z,6.77
2018-01-11T13:56:46.852Z,18.83
2018-01-11T13:59:13.040Z,21.17
2018-01-11T14:01:39.238Z,20.47
2018-01-11T14:04:05.449Z,21.40
2018-01-11T14:06:31.629Z,19.37
2018-01-11T14:08:57.857Z,18.60
2018-01-11T14:11:24.044Z,16.27
2018-01-11T14:13:50.227Z,18.90
2018-01-11T14:16:17.176Z,20.27
2018-01-11T14:18:44.109Z,19.13
2018-01-11T14:21:11.106Z,16.23
2018-01-11T14:23:37.289Z,18.20
2018-01-11T14:26:04.245Z,19.17
2018-01-11T14:28:30.440Z,19.70
2018-01-11T14:30:56.653Z,19.47
2018-01-11T14:33:22.844Z,21.10
2018-01-11T14:35:49.057Z,20.93
2018-01-11T14:38:15.985Z,20.90
2018-01-11T14:40:42.197Z,18.53
2018-01-11T14:43:08.384Z,21.97
2018-01-11T14:45:34.852Z,20.53
2018-01-11T14:48:01.036Z,21.33
2018-01-11T14:50:27.224Z,19.83
2018-01-11T14:52:53.460Z,21.87
2018-01-11T14:55:19.716Z,21.57
2018-01-11T14:57:46.636Z,21.90
2018-01-11T15:00:12.828Z,23.30
2018-01-11T15:02:39.072Z,22.10
2018-01-11T15:05:05.292Z,21.33
2018-01-11T15:07:31.476Z,22.20
2018-01-11T15:09:58.459Z,22.37
2018-01-11T15:12:31.584Z,24.07
2018-01-11T15:14:57.875Z,23.30
2018-01-11T15:17:24.052Z,21.90
2018-01-11T15:19:50.236Z,23.50
2018-01-11T15:22:16.481Z,24.30
2018-01-11T15:24:42.669Z,20.03
2018-01-11T15:27:08.929Z,22.83
2018-01-11T15:29:35.120Z,21.10
2018-01-11T15:32:01.336Z,21.97
2018-01-11T15:34:28.549Z,22.67
2018-01-11T15:36:55.579Z,23.03
2018-01-11T15:39:21.764Z,22.33
2018-01-11T15:41:48.732Z,23.80
2018-01-11T15:44:14.976Z,21.23
2018-01-11T15:46:41.160Z,21.80
2018-01-11T15:49:08.089Z,21.77
2018-01-11T15:51:34.378Z,20.07
2018-01-11T15:54:00.622Z,18.57
2018-01-11T15:56:26.808Z,19.20
2018-01-11T15:58:53.796Z,20.07
2018-01-11T16:01:20.048Z,19.27
2018-01-11T16:03:46.260Z,17.63
2018-01-11T16:06:12.468Z,16.93
2018-01-11T16:08:38.680Z,17.23
2018-01-11T16:11:04.888Z,16.37
2018-01-11T16:13:31.821Z,17.07
2018-01-11T16:15:58.042Z,16.27
2018-01-11T16:18:24.238Z,17.00
2018-01-11T16:20:50.499Z,17.20
2018-01-11T16:23:17.456Z,17.17
2018-01-11T16:25:43.665Z,15.17
2018-01-11T16:28:09.852Z,15.80
2018-01-11T16:30:36.124Z,12.80
2018-01-11T16:33:02.315Z,11.80
2018-01-11T16:35:28.523Z,11.30
2018-01-11T16:37:55.452Z,12.27
2018-01-11T16:40:22.380Z,11.43
2018-01-11T16:42:48.596Z,12.67
2018-01-11T16:45:14.785Z,11.33
2018-01-11T16:47:40.999Z,10.43
2018-01-11T16:50:07.933Z,9.70
2018-01-11T16:52:34.859Z,9.57
2018-01-11T16:55:01.064Z,10.60
2018-01-11T16:57:27.253Z,10.97
2018-01-11T16:59:53.484Z,9.10
2018-01-11T17:02:19.675Z,10.23
2018-01-11T17:04:45.904Z,10.90
2018-01-11T17:07:12.087Z,9.23
2018-01-11T17:09:38.273Z,9.83
2018-01-11T17:12:05.221Z,10.67
2018-01-11T17:14:32.155Z,10.13
2018-01-11T17:16:58.365Z,11.30
2018-01-11T17:19:24.543Z,10.03
2018-01-11T17:21:50.776Z,11.70
2018-01-11T17:24:16.964Z,12.30
2018-01-11T17:26:43.144Z,12.97
2018-01-11T17:29:09.840Z,11.70
2018-01-11T17:31:36.032Z,10.80
2018-01-11T17:34:02.242Z,9.83
2018-01-11T17:36:28.428Z,9.80
2018-01-11T17:38:54.636Z,10.53
2018-01-11T17:41:20.828Z,9.70
2018-01-11T17:43:47.008Z,9.43
2018-01-11T17:46:13.216Z,10.00
2018-01-11T17:48:39.403Z,10.23
2018-01-11T17:51:05.614Z,13.00
2018-01-11T17:53:32.541Z,10.43
2018-01-11T17:55:58.758Z,11.00
2018-01-11T17:58:24.936Z,11.40
2018-01-11T18:00:51.144Z,15.00
2018-01-11T18:03:18.101Z,18.27
2018-01-11T18:05:44.284Z,12.73
2018-01-11T18:08:10.492Z,11.50
2018-01-11T18:10:36.672Z,11.50
2018-01-11T18:13:03.629Z,12.77
2018-01-11T18:15:29.815Z,12.73
2018-01-11T18:17:55.991Z,15.47
2018-01-11T18:20:22.236Z,12.57
2018-01-11T18:22:48.419Z,11.90
2018-01-11T18:25:14.624Z,20.40
2018-01-11T18:27:40.807Z,16.77
2018-01-11T18:30:07.059Z,16.83
2018-01-11T18:32:33.236Z,14.87
2018-01-11T18:35:00.184Z,14.70
2018-01-11T18:37:27.116Z,12.27
2018-01-11T18:39:54.043Z,13.37
2018-01-11T18:42:20.256Z,12.27
2018-01-11T18:44:46.450Z,12.07
2018-01-11T18:47:13.396Z,13.37
2018-01-11T18:49:40.319Z,11.73
2018-01-11T18:52:06.524Z,11.47
2018-01-11T18:54:32.707Z,11.87
2018-01-11T18:56:58.989Z,13.10
2018-01-11T18:59:25.174Z,12.90
2018-01-11T19:01:51.384Z,12.20
2018-01-11T19:04:17.576Z,11.30
2018-01-11T19:06:43.811Z,10.90
2018-01-11T19:09:10.034Z,11.50
2018-01-11T19:11:36.224Z,11.10
2018-01-11T19:14:02.441Z,12.40
2018-01-11T19:16:28.624Z,13.90
2018-01-11T19:18:54.836Z,11.93
2018-01-11T19:21:21.045Z,13.10
2018-01-11T19:23:47.247Z,13.33
2018-01-11T19:26:13.436Z,13.97
2018-01-11T19:28:39.652Z,13.20
2018-01-11T19:31:05.838Z,13.60
2018-01-11T19:33:32.072Z,13.47
2018-01-11T19:35:58.251Z,13.53
2018-01-11T19:38:24.441Z,13.20
2018-01-11T19:40:50.643Z,13.67
2018-01-11T19:43:17.568Z,15.77
2018-01-11T19:45:43.782Z,15.33
2018-01-11T19:48:09.979Z,15.67
2018-01-11T19:50:36.254Z,16.30
2018-01-11T19:53:02.467Z,18.00
2018-01-11T19:55:28.730Z,15.80
2018-01-11T19:57:54.920Z,18.90
2018-01-11T20:00:21.156Z,19.33
2018-01-11T20:02:47.335Z,19.37
2018-01-11T20:05:13.591Z,19.70
2018-01-11T20:07:39.818Z,19.27
2018-01-11T20:10:06.023Z,18.90
2018-01-11T20:12:32.203Z,18.37
2018-01-11T20:14:58.432Z,19.17
2018-01-11T20:17:24.622Z,17.63
2018-01-11T20:19:50.822Z,19.27
2018-01-11T20:22:17.061Z,20.73
2018-01-11T20:24:43.248Z,20.73
2018-01-11T20:27:09.457Z,18.10
2018-01-11T20:29:35.643Z,19.00
2018-01-11T20:32:01.894Z,18.17
2018-01-11T20:34:28.072Z,19.37
2018-01-11T20:36:54.300Z,17.67
2018-01-11T20:39:20.528Z,17.37
2018-01-11T20:41:46.742Z,19.00
2018-01-11T20:44:12.971Z,18.13
2018-01-11T20:46:39.180Z,18.80
2018-01-11T20:49:05.406Z,19.63
2018-01-11T20:51:31.616Z,19.43
2018-01-11T20:53:57.824Z,19.13
2018-01-11T20:56:24.823Z,16.33
2018-01-11T20:58:51.009Z,18.97
2018-01-11T21:01:17.564Z,18.10
2018-01-11T21:03:43.779Z,18.00
2018-01-11T21:06:09.996Z,17.93
2018-01-11T21:08:36.924Z,17.60
2018-01-11T21:11:03.189Z,17.63
2018-01-11T21:13:29.376Z,18.10
2018-01-11T21:15:55.610Z,17.47
2018-01-11T21:18:22.571Z,16.10
2018-01-11T21:20:49.501Z,19.30
2018-01-11T21:23:16.525Z,19.53
2018-01-11T21:25:42.709Z,17.70
2018-01-11T21:28:09.096Z,19.97
2018-01-11T21:30:35.283Z,18.07
2018-01-11T21:33:01.541Z,20.10
2018-01-11T21:35:27.762Z,19.37
2018-01-11T21:37:54.012Z,17.50
2018-01-11T21:40:20.229Z,17.10
2018-01-11T21:42:46.411Z,17.97
2018-01-11T21:45:12.662Z,19.20
2018-01-11T21:47:38.839Z,19.00
2018-01-11T21:50:05.094Z,20.70
2018-01-11T21:52:31.350Z,19.47
2018-01-11T21:54:57.674Z,19.10
2018-01-11T21:57:23.898Z,19.43
2018-01-11T21:59:50.113Z,22.57
2018-01-11T22:02:16.300Z,21.37
2018-01-11T22:04:43.432Z,21.17
2018-01-11T22:07:09.621Z,22.63
2018-01-11T22:09:35.808Z,22.47
2018-01-11T22:12:02.021Z,23.07
2018-01-11T22:14:28.206Z,23.07
2018-01-11T22:16:54.453Z,24.10
2018-01-11T22:19:20.636Z,23.43
2018-01-11T22:21:46.843Z,25.10
2018-01-11T22:24:13.032Z,23.97
2018-01-11T22:26:39.237Z,22.30
2018-01-11T22:29:06.160Z,23.87
2018-01-11T22:31:32.368Z,23.57
2018-01-11T22:33:58.552Z,25.80
2018-01-11T22:36:24.765Z,25.40
2018-01-11T22:38:51.688Z,24.47
2018-01-11T22:41:17.909Z,24.13
2018-01-11T22:43:44.100Z,24.60
2018-01-11T22:46:10.354Z,25.40
2018-01-11T22:48:36.536Z,25.20
2018-01-11T22:51:02.719Z,22.27
2018-01-11T22:53:28.952Z,23.83
2018-01-11T22:55:55.136Z,20.73
2018-01-11T22:58:21.353Z,21.20
2018-01-11T23:00:47.538Z,19.87
2018-01-11T23:03:13.741Z,18.67
2018-01-11T23:05:39.925Z,19.97
2018-01-11T23:08:06.879Z,19.60
2018-01-11T23:10:33.061Z,19.47
2018-01-11T23:12:59.268Z,18.97
2018-01-11T23:15:25.453Z,20.30
2018-01-11T23:17:52.411Z,19.57
2018-01-11T23:20:18.598Z,20.40
2018-01-11T23:22:44.803Z,20.30
2018-01-11T23:25:10.992Z,18.60
2018-01-11T23:27:37.949Z,18.67
2018-01-11T23:30:04.146Z,19.77
2018-01-11T23:32:31.344Z,20.17
2018-01-11T23:34:57.533Z,20.47
2018-01-11T23:37:24.652Z,18.60
2018-01-11T23:39:50.849Z,18.77
2018-01-11T23:42:17.051Z,19.27
2018-01-11T23:44:44.005Z,18.67
2018-01-11T23:47:10.192Z,17.27
2018-01-11T23:49:36.397Z,20.37
2018-01-11T23:52:02.633Z,20.00
2018-01-11T23:54:28.844Z,22.50
2018-01-11T23:56:55.028Z,23.20
2018-01-11T23:59:21.988Z,21.97
